sensor_id;sensor_type;location;lat;lon;timestamp;pressure;altitude;pressure_sealevel;temperature;humidity
52719;BME280;38616;42.140;24.760;2022-07-29T00:02:08;99606.91;;;26.93;43.38
52719;BME280;38616;42.140;24.760;2022-07-29T00:04:35;99596.13;;;26.84;43.61
52719;BME280;38616;42.140;24.760;2022-07-29T00:07:00;99591.34;;;26.85;43.64
52719;BME280;38616;42.140;24.760;2022-07-29T00:09:26;99594.59;;;27.05;43.42
52719;BME280;38616;42.140;24.760;2022-07-29T00:11:51;99597.75;;;26.96;43.08
52719;BME280;38616;42.140;24.760;2022-07-29T00:14:17;99600.97;;;26.98;43.17
52719;BME280;38616;42.140;24.760;2022-07-29T00:16:42;99591.78;;;26.94;43.75
52719;BME280;38616;42.140;24.760;2022-07-29T00:19:07;99600.91;;;26.84;44.05
52719;BME280;38616;42.140;24.760;2022-07-29T00:21:33;99597.75;;;26.96;43.80
52719;BME280;38616;42.140;24.760;2022-07-29T00:23:58;99593.78;;;26.97;43.92
52719;BME280;38616;42.140;24.760;2022-07-29T00:26:24;99599.63;;;26.74;44.50
52719;BME280;38616;42.140;24.760;2022-07-29T00:28:49;99596.13;;;26.88;44.32
52719;BME280;38616;42.140;24.760;2022-07-29T00:31:15;99586.94;;;26.80;44.17
52719;BME280;38616;42.140;24.760;2022-07-29T00:33:40;99588.06;;;26.65;44.55
52719;BME280;38616;42.140;24.760;2022-07-29T00:36:05;99593.72;;;26.83;44.13
52719;BME280;38616;42.140;24.760;2022-07-29T00:38:31;99603.91;;;26.50;44.95
52719;BME280;38616;42.140;24.760;2022-07-29T00:40:56;99590.75;;;26.47;45.18
52719;BME280;38616;42.140;24.760;2022-07-29T00:43:22;99592.84;;;26.68;44.72
52719;BME280;38616;42.140;24.760;2022-07-29T00:45:47;99593.16;;;26.55;45.09
52719;BME280;38616;42.140;24.760;2022-07-29T00:48:13;99598.00;;;26.66;44.78
52719;BME280;38616;42.140;24.760;2022-07-29T00:50:38;99594.72;;;26.53;45.03
52719;BME280;38616;42.140;24.760;2022-07-29T00:53:06;99595.50;;;26.46;45.49
52719;BME280;38616;42.140;24.760;2022-07-29T00:55:32;99594.34;;;26.54;45.49
52719;BME280;38616;42.140;24.760;2022-07-29T00:57:58;99594.38;;;26.58;45.43
52719;BME280;38616;42.140;24.760;2022-07-29T01:00:25;99599.53;;;26.52;45.72
52719;BME280;38616;42.140;24.760;2022-07-29T01:02:51;99601.59;;;26.70;45.27
52719;BME280;38616;42.140;24.760;2022-07-29T01:05:18;99596.75;;;26.56;45.82
52719;BME280;38616;42.140;24.760;2022-07-29T01:07:45;99591.91;;;26.38;46.28
52719;BME280;38616;42.140;24.760;2022-07-29T01:10:12;99595.63;;;26.68;45.71
52719;BME280;38616;42.140;24.760;2022-07-29T01:12:38;99595.19;;;26.62;45.86
52719;BME280;38616;42.140;24.760;2022-07-29T01:15:07;99588.47;;;26.70;45.62
52719;BME280;38616;42.140;24.760;2022-07-29T01:20:10;99601.47;;;26.48;46.20
52719;BME280;38616;42.140;24.760;2022-07-29T01:23:08;99614.16;;;26.38;46.70
52719;BME280;38616;42.140;24.760;2022-07-29T01:30:41;99594.19;;;26.25;46.75
52719;BME280;38616;42.140;24.760;2022-07-29T01:33:12;99600.63;;;26.37;46.86
52719;BME280;38616;42.140;24.760;2022-07-29T01:36:01;99601.53;;;26.59;46.14
52719;BME280;38616;42.140;24.760;2022-07-29T01:38:31;99600.66;;;26.40;46.39
52719;BME280;38616;42.140;24.760;2022-07-29T01:41:05;99599.69;;;26.15;47.03
52719;BME280;38616;42.140;24.760;2022-07-29T01:43:37;99596.81;;;26.07;47.01
52719;BME280;38616;42.140;24.760;2022-07-29T01:46:12;99589.13;;;25.90;47.15
52719;BME280;38616;42.140;24.760;2022-07-29T01:48:47;99594.22;;;25.80;47.51
52719;BME280;38616;42.140;24.760;2022-07-29T01:51:19;99596.00;;;26.07;46.80
52719;BME280;38616;42.140;24.760;2022-07-29T01:53:55;99588.41;;;25.96;47.09
52719;BME280;38616;42.140;24.760;2022-07-29T01:56:25;99587.09;;;25.87;47.54
52719;BME280;38616;42.140;24.760;2022-07-29T01:58:55;99585.16;;;25.91;47.36
52719;BME280;38616;42.140;24.760;2022-07-29T02:01:23;99582.72;;;25.86;47.64
52719;BME280;38616;42.140;24.760;2022-07-29T02:03:50;99592.09;;;25.66;48.08
52719;BME280;38616;42.140;24.760;2022-07-29T02:06:19;99593.63;;;25.57;48.48
52719;BME280;38616;42.140;24.760;2022-07-29T02:08:46;99592.06;;;25.63;48.13
52719;BME280;38616;42.140;24.760;2022-07-29T02:11:12;99589.69;;;25.65;48.25
52719;BME280;38616;42.140;24.760;2022-07-29T02:13:39;99588.50;;;25.66;48.48
52719;BME280;38616;42.140;24.760;2022-07-29T02:16:07;99577.03;;;25.67;48.31
52719;BME280;38616;42.140;24.760;2022-07-29T02:18:36;99579.41;;;25.69;48.31
52719;BME280;38616;42.140;24.760;2022-07-29T02:21:03;99566.75;;;25.75;47.94
52719;BME280;38616;42.140;24.760;2022-07-29T02:23:30;99576.75;;;25.84;47.85
52719;BME280;38616;42.140;24.760;2022-07-29T02:25:56;99584.19;;;25.72;48.12
52719;BME280;38616;42.140;24.760;2022-07-29T02:28:24;99587.16;;;25.90;47.59
52719;BME280;38616;42.140;24.760;2022-07-29T02:30:52;99575.38;;;25.63;48.27
52719;BME280;38616;42.140;24.760;2022-07-29T02:33:19;99579.31;;;25.58;48.09
52719;BME280;38616;42.140;24.760;2022-07-29T02:35:47;99571.19;;;25.42;48.01
52719;BME280;38616;42.140;24.760;2022-07-29T02:38:15;99575.50;;;25.36;48.67
52719;BME280;38616;42.140;24.760;2022-07-29T02:41:04;99576.72;;;25.38;48.57
52719;BME280;38616;42.140;24.760;2022-07-29T02:43:31;99575.94;;;25.38;48.64
52719;BME280;38616;42.140;24.760;2022-07-29T02:45:59;99571.84;;;25.28;48.88
52719;BME280;38616;42.140;24.760;2022-07-29T02:48:37;99567.25;;;25.43;48.32
52719;BME280;38616;42.140;24.760;2022-07-29T02:51:18;99578.41;;;25.47;47.99
52719;BME280;38616;42.140;24.760;2022-07-29T02:53:47;99576.06;;;25.49;48.17
52719;BME280;38616;42.140;24.760;2022-07-29T02:56:16;99578.22;;;25.29;48.73
52719;BME280;38616;42.140;24.760;2022-07-29T02:58:52;99577.09;;;24.99;49.36
52719;BME280;38616;42.140;24.760;2022-07-29T03:01:25;99584.13;;;24.89;49.80
52719;BME280;38616;42.140;24.760;2022-07-29T03:03:55;99581.50;;;25.04;49.29
52719;BME280;38616;42.140;24.760;2022-07-29T03:06:22;99584.44;;;24.84;49.92
52719;BME280;38616;42.140;24.760;2022-07-29T03:08:49;99588.50;;;24.90;49.55
52719;BME280;38616;42.140;24.760;2022-07-29T03:11:15;99584.03;;;24.82;49.72
52719;BME280;38616;42.140;24.760;2022-07-29T03:13:41;99580.41;;;24.78;50.07
52719;BME280;38616;42.140;24.760;2022-07-29T03:16:07;99581.81;;;24.95;49.45
52719;BME280;38616;42.140;24.760;2022-07-29T03:18:34;99584.09;;;24.86;49.81
52719;BME280;38616;42.140;24.760;2022-07-29T03:21:00;99586.13;;;24.92;49.83
52719;BME280;38616;42.140;24.760;2022-07-29T03:23:25;99586.44;;;24.84;49.83
52719;BME280;38616;42.140;24.760;2022-07-29T03:25:53;99595.22;;;24.89;49.70
52719;BME280;38616;42.140;24.760;2022-07-29T03:28:19;99597.81;;;24.75;50.04
52719;BME280;38616;42.140;24.760;2022-07-29T03:30:45;99607.25;;;24.40;50.79
52719;BME280;38616;42.140;24.760;2022-07-29T03:33:10;99605.19;;;24.10;51.84
52719;BME280;38616;42.140;24.760;2022-07-29T03:35:36;99607.53;;;24.08;51.98
52719;BME280;38616;42.140;24.760;2022-07-29T03:38:02;99604.63;;;24.24;51.92
52719;BME280;38616;42.140;24.760;2022-07-29T03:40:32;99602.53;;;24.44;51.08
52719;BME280;38616;42.140;24.760;2022-07-29T03:43:00;99604.19;;;23.98;52.17
52719;BME280;38616;42.140;24.760;2022-07-29T03:45:28;99607.22;;;23.89;52.83
52719;BME280;38616;42.140;24.760;2022-07-29T03:47:59;99604.94;;;23.95;52.52
52719;BME280;38616;42.140;24.760;2022-07-29T03:50:27;99610.06;;;24.16;51.94
52719;BME280;38616;42.140;24.760;2022-07-29T03:52:54;99603.94;;;24.30;51.72
52719;BME280;38616;42.140;24.760;2022-07-29T03:55:19;99603.34;;;24.44;51.17
52719;BME280;38616;42.140;24.760;2022-07-29T03:57:46;99605.66;;;24.69;50.67
52719;BME280;38616;42.140;24.760;2022-07-29T04:00:13;99606.41;;;24.93;50.02
52719;BME280;38616;42.140;24.760;2022-07-29T04:02:38;99601.72;;;25.01;50.08
52719;BME280;38616;42.140;24.760;2022-07-29T04:05:05;99610.19;;;24.81;50.09
52719;BME280;38616;42.140;24.760;2022-07-29T04:07:36;99618.75;;;24.69;50.45
52719;BME280;38616;42.140;24.760;2022-07-29T04:10:02;99615.66;;;24.74;49.90
52719;BME280;38616;42.140;24.760;2022-07-29T04:12:27;99622.41;;;24.73;50.01
52719;BME280;38616;42.140;24.760;2022-07-29T04:14:52;99622.31;;;24.96;49.77
52719;BME280;38616;42.140;24.760;2022-07-29T04:17:18;99620.38;;;25.00;49.39
52719;BME280;38616;42.140;24.760;2022-07-29T04:19:43;99634.75;;;24.75;50.03
52719;BME280;38616;42.140;24.760;2022-07-29T04:22:09;99624.00;;;24.74;50.25
52719;BME280;38616;42.140;24.760;2022-07-29T04:24:34;99631.09;;;24.17;51.81
52719;BME280;38616;42.140;24.760;2022-07-29T04:26:59;99629.97;;;24.22;51.97
52719;BME280;38616;42.140;24.760;2022-07-29T04:29:25;99613.25;;;23.95;52.25
52719;BME280;38616;42.140;24.760;2022-07-29T04:31:50;99623.84;;;24.36;52.02
52719;BME280;38616;42.140;24.760;2022-07-29T04:34:16;99625.03;;;24.92;50.65
52719;BME280;38616;42.140;24.760;2022-07-29T04:36:41;99610.88;;;25.01;50.08
52719;BME280;38616;42.140;24.760;2022-07-29T04:39:06;99623.75;;;25.17;49.60
52719;BME280;38616;42.140;24.760;2022-07-29T04:41:32;99620.91;;;24.52;51.04
52719;BME280;38616;42.140;24.760;2022-07-29T04:43:57;99627.94;;;24.19;51.82
52719;BME280;38616;42.140;24.760;2022-07-29T04:46:23;99634.41;;;23.80;52.97
52719;BME280;38616;42.140;24.760;2022-07-29T04:48:48;99629.44;;;24.13;52.04
52719;BME280;38616;42.140;24.760;2022-07-29T04:51:14;99639.16;;;24.53;50.36
52719;BME280;38616;42.140;24.760;2022-07-29T04:53:40;99641.06;;;24.72;49.42
52719;BME280;38616;42.140;24.760;2022-07-29T04:56:05;99642.06;;;24.60;49.53
52719;BME280;38616;42.140;24.760;2022-07-29T04:58:31;99640.00;;;24.84;48.94
52719;BME280;38616;42.140;24.760;2022-07-29T05:00:56;99635.28;;;24.88;48.86
52719;BME280;38616;42.140;24.760;2022-07-29T05:03:22;99626.78;;;25.04;48.42
52719;BME280;38616;42.140;24.760;2022-07-29T05:05:47;99636.31;;;25.07;48.79
52719;BME280;38616;42.140;24.760;2022-07-29T05:08:13;99645.69;;;25.26;48.41
52719;BME280;38616;42.140;24.760;2022-07-29T05:10:38;99647.28;;;25.27;48.43
52719;BME280;38616;42.140;24.760;2022-07-29T05:13:07;99640.81;;;25.49;48.03
52719;BME280;38616;42.140;24.760;2022-07-29T05:15:34;99645.09;;;25.43;48.33
52719;BME280;38616;42.140;24.760;2022-07-29T05:18:00;99646.63;;;25.41;48.40
52719;BME280;38616;42.140;24.760;2022-07-29T05:20:27;99642.75;;;25.45;48.70
52719;BME280;38616;42.140;24.760;2022-07-29T05:22:58;99646.47;;;25.57;48.43
52719;BME280;38616;42.140;24.760;2022-07-29T05:25:25;99652.63;;;25.80;47.92
52719;BME280;38616;42.140;24.760;2022-07-29T05:27:51;99645.88;;;25.44;48.45
52719;BME280;38616;42.140;24.760;2022-07-29T05:30:16;99642.41;;;25.50;48.34
52719;BME280;38616;42.140;24.760;2022-07-29T05:32:42;99655.28;;;25.32;48.77
52719;BME280;38616;42.140;24.760;2022-07-29T05:35:08;99660.16;;;24.77;49.73
52719;BME280;38616;42.140;24.760;2022-07-29T05:37:34;99650.78;;;24.89;49.75
52719;BME280;38616;42.140;24.760;2022-07-29T05:39:59;99644.31;;;25.08;49.18
52719;BME280;38616;42.140;24.760;2022-07-29T05:42:25;99656.13;;;25.36;47.92
52719;BME280;38616;42.140;24.760;2022-07-29T05:44:51;99655.56;;;25.54;47.70
52719;BME280;38616;42.140;24.760;2022-07-29T05:47:17;99651.88;;;25.84;47.59
52719;BME280;38616;42.140;24.760;2022-07-29T05:49:42;99654.16;;;26.16;47.05
52719;BME280;38616;42.140;24.760;2022-07-29T05:52:08;99656.34;;;26.40;46.64
52719;BME280;38616;42.140;24.760;2022-07-29T05:54:34;99659.50;;;26.35;46.22
52719;BME280;38616;42.140;24.760;2022-07-29T05:57:00;99674.72;;;26.49;45.99
52719;BME280;38616;42.140;24.760;2022-07-29T05:59:25;99672.72;;;26.01;47.04
52719;BME280;38616;42.140;24.760;2022-07-29T06:01:51;99675.41;;;25.52;48.15
52719;BME280;38616;42.140;24.760;2022-07-29T06:04:16;99672.03;;;25.73;47.77
52719;BME280;38616;42.140;24.760;2022-07-29T06:06:42;99669.03;;;25.93;47.14
52719;BME280;38616;42.140;24.760;2022-07-29T06:09:07;99668.19;;;25.85;47.34
52719;BME280;38616;42.140;24.760;2022-07-29T06:11:33;99676.84;;;26.18;46.85
52719;BME280;38616;42.140;24.760;2022-07-29T06:13:58;99668.16;;;26.26;46.64
52719;BME280;38616;42.140;24.760;2022-07-29T06:16:24;99665.78;;;26.25;46.95
52719;BME280;38616;42.140;24.760;2022-07-29T06:18:49;99673.22;;;26.66;46.48
52719;BME280;38616;42.140;24.760;2022-07-29T06:21:14;99663.84;;;26.96;46.21
52719;BME280;38616;42.140;24.760;2022-07-29T06:23:40;99676.34;;;27.27;45.39
52719;BME280;38616;42.140;24.760;2022-07-29T06:26:06;99671.53;;;27.17;45.73
52719;BME280;38616;42.140;24.760;2022-07-29T06:28:32;99668.72;;;27.21;45.61
52719;BME280;38616;42.140;24.760;2022-07-29T06:30:58;99667.19;;;27.34;45.65
52719;BME280;38616;42.140;24.760;2022-07-29T06:33:23;99672.00;;;27.44;44.94
52719;BME280;38616;42.140;24.760;2022-07-29T06:35:49;99675.16;;;27.43;45.06
52719;BME280;38616;42.140;24.760;2022-07-29T06:38:15;99670.06;;;27.56;44.69
52719;BME280;38616;42.140;24.760;2022-07-29T06:40:42;99671.25;;;27.51;45.17
52719;BME280;38616;42.140;24.760;2022-07-29T06:43:52;99663.31;;;27.57;45.35
52719;BME280;38616;42.140;24.760;2022-07-29T06:46:18;99668.91;;;27.75;44.55
52719;BME280;38616;42.140;24.760;2022-07-29T06:48:45;99663.31;;;27.75;44.61
52719;BME280;38616;42.140;24.760;2022-07-29T06:51:11;99657.34;;;27.84;43.61
52719;BME280;38616;42.140;24.760;2022-07-29T06:53:37;99660.16;;;27.69;43.96
52719;BME280;38616;42.140;24.760;2022-07-29T06:56:05;99657.72;;;27.68;44.38
52719;BME280;38616;42.140;24.760;2022-07-29T06:58:30;99658.56;;;27.90;43.88
52719;BME280;38616;42.140;24.760;2022-07-29T07:01:00;99654.59;;;28.13;43.86
52719;BME280;38616;42.140;24.760;2022-07-29T07:03:26;99652.22;;;28.15;43.67
52719;BME280;38616;42.140;24.760;2022-07-29T07:05:53;99653.41;;;28.17;44.07
52719;BME280;38616;42.140;24.760;2022-07-29T07:08:19;99660.19;;;28.20;42.73
52719;BME280;38616;42.140;24.760;2022-07-29T07:10:45;99657.53;;;27.13;44.93
52719;BME280;38616;42.140;24.760;2022-07-29T07:13:11;99655.06;;;26.90;45.67
52719;BME280;38616;42.140;24.760;2022-07-29T07:15:37;99651.88;;;26.84;45.42
52719;BME280;38616;42.140;24.760;2022-07-29T07:18:04;99650.34;;;27.05;45.18
52719;BME280;38616;42.140;24.760;2022-07-29T07:20:31;99649.66;;;27.30;44.20
52719;BME280;38616;42.140;24.760;2022-07-29T07:22:56;99648.59;;;27.75;43.89
52719;BME280;38616;42.140;24.760;2022-07-29T07:25:21;99645.00;;;28.10;43.35
52719;BME280;38616;42.140;24.760;2022-07-29T07:27:47;99656.97;;;28.29;42.27
52719;BME280;38616;42.140;24.760;2022-07-29T07:30:13;99654.97;;;28.40;41.62
52719;BME280;38616;42.140;24.760;2022-07-29T07:32:39;99648.97;;;28.45;41.40
52719;BME280;38616;42.140;24.760;2022-07-29T07:35:06;99640.59;;;28.53;40.78
52719;BME280;38616;42.140;24.760;2022-07-29T07:37:33;99645.75;;;28.65;41.22
52719;BME280;38616;42.140;24.760;2022-07-29T07:40:00;99637.75;;;28.71;40.37
52719;BME280;38616;42.140;24.760;2022-07-29T07:42:26;99648.53;;;28.76;40.22
52719;BME280;38616;42.140;24.760;2022-07-29T07:44:51;99636.97;;;28.78;40.46
52719;BME280;38616;42.140;24.760;2022-07-29T07:47:18;99628.16;;;28.86;40.29
52719;BME280;38616;42.140;24.760;2022-07-29T07:49:48;99641.69;;;29.02;40.55
52719;BME280;38616;42.140;24.760;2022-07-29T07:52:16;99633.19;;;29.17;39.93
52719;BME280;38616;42.140;24.760;2022-07-29T07:54:42;99636.16;;;28.73;38.98
52719;BME280;38616;42.140;24.760;2022-07-29T07:57:09;99633.38;;;28.77;39.49
52719;BME280;38616;42.140;24.760;2022-07-29T07:59:34;99626.59;;;28.82;39.61
52719;BME280;38616;42.140;24.760;2022-07-29T08:02:00;99628.84;;;29.12;38.47
52719;BME280;38616;42.140;24.760;2022-07-29T08:04:26;99627.16;;;29.33;37.43
52719;BME280;38616;42.140;24.760;2022-07-29T08:06:51;99625.41;;;29.57;36.71
52719;BME280;38616;42.140;24.760;2022-07-29T08:09:22;99621.75;;;29.68;36.45
52719;BME280;38616;42.140;24.760;2022-07-29T08:11:47;99628.94;;;29.69;36.01
52719;BME280;38616;42.140;24.760;2022-07-29T08:14:13;99617.41;;;29.59;36.18
52719;BME280;38616;42.140;24.760;2022-07-29T08:16:39;99619.03;;;29.57;36.77
52719;BME280;38616;42.140;24.760;2022-07-29T08:19:05;99621.31;;;29.73;36.23
52719;BME280;38616;42.140;24.760;2022-07-29T08:21:31;99628.41;;;29.88;36.16
52719;BME280;38616;42.140;24.760;2022-07-29T08:23:56;99622.75;;;29.96;34.83
52719;BME280;38616;42.140;24.760;2022-07-29T08:26:42;99629.41;;;30.13;33.77
52719;BME280;38616;42.140;24.760;2022-07-29T08:29:08;99625.31;;;29.72;33.83
52719;BME280;38616;42.140;24.760;2022-07-29T08:31:35;99620.94;;;28.96;35.10
52719;BME280;38616;42.140;24.760;2022-07-29T08:34:00;99614.38;;;29.32;34.76
52719;BME280;38616;42.140;24.760;2022-07-29T08:36:26;99618.75;;;29.29;34.07
52719;BME280;38616;42.140;24.760;2022-07-29T08:38:52;99615.13;;;29.40;34.45
52719;BME280;38616;42.140;24.760;2022-07-29T08:41:21;99612.44;;;29.82;34.11
52719;BME280;38616;42.140;24.760;2022-07-29T08:43:48;99601.34;;;29.67;33.36
52719;BME280;38616;42.140;24.760;2022-07-29T08:46:14;99606.84;;;29.82;33.36
52719;BME280;38616;42.140;24.760;2022-07-29T08:48:41;99603.22;;;29.88;33.35
52719;BME280;38616;42.140;24.760;2022-07-29T08:51:07;99602.72;;;29.97;32.75
52719;BME280;38616;42.140;24.760;2022-07-29T08:53:33;99602.94;;;29.72;32.15
52719;BME280;38616;42.140;24.760;2022-07-29T08:55:59;99599.13;;;29.97;32.15
52719;BME280;38616;42.140;24.760;2022-07-29T08:58:25;99598.56;;;30.16;32.31
52719;BME280;38616;42.140;24.760;2022-07-29T09:00:53;99586.06;;;30.28;32.02
52719;BME280;38616;42.140;24.760;2022-07-29T09:03:20;99582.22;;;30.49;31.30
52719;BME280;38616;42.140;24.760;2022-07-29T09:05:48;99591.91;;;30.45;31.37
52719;BME280;38616;42.140;24.760;2022-07-29T09:08:14;99584.13;;;30.21;31.78
52719;BME280;38616;42.140;24.760;2022-07-29T09:10:40;99579.34;;;30.18;31.69
52719;BME280;38616;42.140;24.760;2022-07-29T09:13:05;99585.94;;;30.39;31.16
52719;BME280;38616;42.140;24.760;2022-07-29T09:15:31;99575.41;;;30.50;31.28
52719;BME280;38616;42.140;24.760;2022-07-29T09:17:57;99566.06;;;30.64;30.33
52719;BME280;38616;42.140;24.760;2022-07-29T09:20:24;99579.50;;;30.80;30.29
52719;BME280;38616;42.140;24.760;2022-07-29T09:22:52;99568.13;;;30.91;29.98
52719;BME280;38616;42.140;24.760;2022-07-29T09:28:09;99564.53;;;30.91;29.42
52719;BME280;38616;42.140;24.760;2022-07-29T09:30:39;99572.22;;;30.87;28.80
52719;BME280;38616;42.140;24.760;2022-07-29T09:33:14;99557.94;;;30.74;29.54
52719;BME280;38616;42.140;24.760;2022-07-29T09:35:40;99559.44;;;30.82;29.14
52719;BME280;38616;42.140;24.760;2022-07-29T09:38:14;99563.19;;;30.99;29.17
52719;BME280;38616;42.140;24.760;2022-07-29T09:40:40;99558.81;;;30.98;29.57
52719;BME280;38616;42.140;24.760;2022-07-29T09:43:10;99561.78;;;30.49;30.28
52719;BME280;38616;42.140;24.760;2022-07-29T09:45:36;99561.63;;;30.29;30.70
52719;BME280;38616;42.140;24.760;2022-07-29T09:48:20;99552.31;;;30.39;31.01
52719;BME280;38616;42.140;24.760;2022-07-29T09:51:05;99553.41;;;30.84;30.51
52719;BME280;38616;42.140;24.760;2022-07-29T09:53:37;99562.53;;;31.22;29.25
52719;BME280;38616;42.140;24.760;2022-07-29T09:56:05;99557.41;;;31.14;28.95
52719;BME280;38616;42.140;24.760;2022-07-29T09:58:31;99548.91;;;31.21;27.57
52719;BME280;38616;42.140;24.760;2022-07-29T10:00:58;99548.41;;;31.30;27.59
52719;BME280;38616;42.140;24.760;2022-07-29T10:03:24;99539.38;;;31.42;27.05
52719;BME280;38616;42.140;24.760;2022-07-29T10:06:09;99547.22;;;31.27;27.20
52719;BME280;38616;42.140;24.760;2022-07-29T10:08:36;99543.81;;;31.39;26.97
52719;BME280;38616;42.140;24.760;2022-07-29T10:11:17;99543.00;;;31.11;27.29
52719;BME280;38616;42.140;24.760;2022-07-29T10:13:46;99537.28;;;31.22;27.04
52719;BME280;38616;42.140;24.760;2022-07-29T10:16:14;99546.06;;;30.93;26.68
52719;BME280;38616;42.140;24.760;2022-07-29T10:18:41;99543.50;;;30.75;27.09
52719;BME280;38616;42.140;24.760;2022-07-29T10:21:07;99540.78;;;30.99;27.29
52719;BME280;38616;42.140;24.760;2022-07-29T10:23:34;99538.53;;;31.18;27.67
52719;BME280;38616;42.140;24.760;2022-07-29T10:26:02;99542.25;;;31.07;27.56
52719;BME280;38616;42.140;24.760;2022-07-29T10:28:27;99535.50;;;30.74;27.94
52719;BME280;38616;42.140;24.760;2022-07-29T10:31:00;99535.00;;;30.48;28.62
52719;BME280;38616;42.140;24.760;2022-07-29T10:33:33;99528.09;;;30.91;28.72
52719;BME280;38616;42.140;24.760;2022-07-29T10:41:59;99514.91;;;31.15;28.65
52719;BME280;38616;42.140;24.760;2022-07-29T10:44:27;99518.50;;;31.43;28.53
52719;BME280;38616;42.140;24.760;2022-07-29T10:46:53;99513.47;;;31.58;28.26
52719;BME280;38616;42.140;24.760;2022-07-29T10:49:21;99514.19;;;31.62;27.77
52719;BME280;38616;42.140;24.760;2022-07-29T10:52:07;99514.19;;;31.11;28.49
52719;BME280;38616;42.140;24.760;2022-07-29T10:59:44;99496.22;;;31.05;29.13
52719;BME280;38616;42.140;24.760;2022-07-29T11:07:23;99491.06;;;31.78;29.04
52719;BME280;38616;42.140;24.760;2022-07-29T11:10:24;99478.41;;;31.90;28.87
52719;BME280;38616;42.140;24.760;2022-07-29T11:12:50;99480.94;;;32.05;28.97
52719;BME280;38616;42.140;24.760;2022-07-29T11:15:18;99474.06;;;32.09;28.65
52719;BME280;38616;42.140;24.760;2022-07-29T11:23:31;99461.97;;;32.12;28.93
52719;BME280;38616;42.140;24.760;2022-07-29T11:31:44;99463.91;;;31.48;29.88
52719;BME280;38616;42.140;24.760;2022-07-29T11:34:19;99460.66;;;31.49;29.96
52719;BME280;38616;42.140;24.760;2022-07-29T11:47:37;99444.88;;;31.59;29.24
52719;BME280;38616;42.140;24.760;2022-07-29T11:50:09;99428.59;;;31.94;29.56
52719;BME280;38616;42.140;24.760;2022-07-29T11:52:35;99429.69;;;32.21;28.39
52719;BME280;38616;42.140;24.760;2022-07-29T11:55:05;99438.31;;;32.30;28.94
52719;BME280;38616;42.140;24.760;2022-07-29T11:57:31;99432.75;;;32.26;28.42
52719;BME280;38616;42.140;24.760;2022-07-29T11:59:59;99420.69;;;32.09;28.36
52719;BME280;38616;42.140;24.760;2022-07-29T12:02:38;99427.03;;;32.34;28.54
52719;BME280;38616;42.140;24.760;2022-07-29T12:05:04;99417.28;;;32.38;28.46
52719;BME280;38616;42.140;24.760;2022-07-29T12:07:31;99410.22;;;32.10;28.11
52719;BME280;38616;42.140;24.760;2022-07-29T12:09:57;99410.72;;;32.25;28.29
52719;BME280;38616;42.140;24.760;2022-07-29T12:12:23;99409.94;;;32.24;28.47
52719;BME280;38616;42.140;24.760;2022-07-29T12:14:49;99410.59;;;32.12;28.26
52719;BME280;38616;42.140;24.760;2022-07-29T12:19:54;99409.94;;;32.24;28.62
52719;BME280;38616;42.140;24.760;2022-07-29T12:22:30;99411.28;;;32.36;27.43
52719;BME280;38616;42.140;24.760;2022-07-29T12:25:09;99409.00;;;32.11;27.53
52719;BME280;38616;42.140;24.760;2022-07-29T12:27:36;99404.91;;;32.36;27.81
52719;BME280;38616;42.140;24.760;2022-07-29T12:30:08;99404.50;;;32.54;27.87
52719;BME280;38616;42.140;24.760;2022-07-29T12:32:47;99403.25;;;32.55;27.36
52719;BME280;38616;42.140;24.760;2022-07-29T12:35:14;99401.00;;;32.66;27.40
52719;BME280;38616;42.140;24.760;2022-07-29T12:37:42;99396.34;;;32.76;27.82
52719;BME280;38616;42.140;24.760;2022-07-29T12:40:10;99382.56;;;32.82;27.74
52719;BME280;38616;42.140;24.760;2022-07-29T12:42:36;99390.22;;;32.98;27.56
52719;BME280;38616;42.140;24.760;2022-07-29T12:45:03;99388.28;;;32.95;27.46
52719;BME280;38616;42.140;24.760;2022-07-29T12:47:29;99386.19;;;32.99;27.50
52719;BME280;38616;42.140;24.760;2022-07-29T12:50:12;99377.84;;;32.95;27.58
52719;BME280;38616;42.140;24.760;2022-07-29T12:52:40;99373.19;;;33.05;27.32
52719;BME280;38616;42.140;24.760;2022-07-29T12:55:06;99373.88;;;33.09;27.27
52719;BME280;38616;42.140;24.760;2022-07-29T12:57:32;99373.28;;;33.01;27.79
52719;BME280;38616;42.140;24.760;2022-07-29T13:00:11;99366.13;;;33.13;27.69
52719;BME280;38616;42.140;24.760;2022-07-29T13:02:38;99373.69;;;33.16;27.36
52719;BME280;38616;42.140;24.760;2022-07-29T13:05:05;99362.94;;;32.45;27.78
52719;BME280;38616;42.140;24.760;2022-07-29T13:07:32;99364.16;;;32.44;27.96
52719;BME280;38616;42.140;24.760;2022-07-29T13:10:15;99361.72;;;32.46;28.05
52719;BME280;38616;42.140;24.760;2022-07-29T13:13:03;99350.31;;;32.86;27.59
52719;BME280;38616;42.140;24.760;2022-07-29T13:15:29;99357.34;;;32.95;27.55
52719;BME280;38616;42.140;24.760;2022-07-29T13:17:55;99355.41;;;33.08;27.49
52719;BME280;38616;42.140;24.760;2022-07-29T13:20:24;99351.53;;;33.19;27.42
52719;BME280;38616;42.140;24.760;2022-07-29T13:22:50;99351.38;;;33.09;27.19
52719;BME280;38616;42.140;24.760;2022-07-29T13:25:27;99349.16;;;32.84;27.54
52719;BME280;38616;42.140;24.760;2022-07-29T13:27:53;99338.19;;;32.90;27.32
52719;BME280;38616;42.140;24.760;2022-07-29T13:30:20;99338.53;;;33.08;27.58
52719;BME280;38616;42.140;24.760;2022-07-29T13:32:45;99327.88;;;33.16;27.80
52719;BME280;38616;42.140;24.760;2022-07-29T13:35:11;99326.44;;;33.24;27.47
52719;BME280;38616;42.140;24.760;2022-07-29T13:37:38;99325.69;;;33.24;27.39
52719;BME280;38616;42.140;24.760;2022-07-29T13:40:05;99328.03;;;33.25;27.24
52719;BME280;38616;42.140;24.760;2022-07-29T13:42:31;99320.03;;;33.24;27.08
52719;BME280;38616;42.140;24.760;2022-07-29T13:44:58;99320.59;;;33.19;27.18
52719;BME280;38616;42.140;24.760;2022-07-29T13:47:23;99319.69;;;33.22;27.00